createdAt,value
2018-10-02T00:00:43.014Z,12.41
2018-10-02T00:03:11.788Z,12.38
2018-10-02T00:05:40.617Z,12.38
2018-10-02T00:08:09.520Z,12.32
2018-10-02T00:10:38.330Z,12.31
2018-10-02T00:13:12.463Z,12.30
2018-10-02T00:15:41.367Z,12.21
2018-10-02T00:18:10.233Z,12.18
2018-10-02T00:20:39.033Z,12.17
2018-10-02T00:23:07.816Z,12.12
2018-10-02T00:25:36.628Z,12.09
2018-10-02T00:28:05.432Z,12.12
2018-10-02T00:30:34.496Z,12.10
2018-10-02T00:33:03.444Z,12.11
2018-10-02T00:35:32.333Z,12.10
2018-10-02T00:38:01.128Z,12.07
2018-10-02T00:40:29.891Z,12.01
2018-10-02T00:42:58.733Z,11.99
2018-10-02T00:45:27.611Z,12.02
2018-10-02T00:47:56.431Z,12.02
2018-10-02T00:50:25.306Z,12.02
2018-10-02T00:52:54.400Z,12.03
2018-10-02T00:55:23.324Z,12.02
2018-10-02T00:57:52.180Z,12.06
2018-10-02T01:00:21.312Z,12.06
2018-10-02T01:02:50.234Z,12.09
2018-10-02T01:05:19.043Z,12.08
2018-10-02T01:07:47.964Z,12.12
2018-10-02T01:10:16.868Z,12.14
2018-10-02T01:12:45.790Z,12.16
2018-10-02T01:15:14.632Z,12.20
2018-10-02T01:17:43.597Z,12.22
2018-10-02T01:20:12.538Z,12.21
2018-10-02T01:22:41.330Z,12.22
2018-10-02T01:25:10.180Z,12.14
2018-10-02T01:30:07.249Z,12.26
2018-10-02T01:32:36.353Z,12.22
2018-10-02T01:35:05.293Z,12.22
2018-10-02T01:37:34.083Z,12.27
2018-10-02T01:40:02.924Z,12.28
2018-10-02T01:42:31.735Z,12.19
2018-10-02T01:45:00.738Z,12.17
2018-10-02T01:47:29.543Z,12.13
2018-10-02T01:49:58.416Z,12.09
2018-10-02T01:52:27.245Z,11.99
2018-10-02T01:54:56.092Z,11.95
2018-10-02T01:57:24.847Z,11.95
2018-10-02T01:59:53.760Z,11.94
2018-10-02T02:02:22.560Z,11.96
2018-10-02T02:04:51.444Z,11.92
2018-10-02T02:07:20.269Z,11.94
2018-10-02T02:09:49.060Z,11.89
2018-10-02T02:12:17.862Z,11.85
2018-10-02T02:14:46.672Z,11.83
2018-10-02T02:17:15.465Z,11.75
2018-10-02T02:19:44.261Z,11.76
2018-10-02T02:22:13.038Z,11.75
2018-10-02T02:24:41.858Z,11.67
2018-10-02T02:27:10.679Z,11.66
2018-10-02T02:29:39.493Z,11.67
2018-10-02T02:32:08.309Z,11.66
2018-10-02T02:34:37.151Z,11.60
2018-10-02T02:37:06.088Z,11.63
2018-10-02T02:39:35.067Z,11.58
2018-10-02T02:42:04.388Z,11.56
2018-10-02T02:44:33.159Z,11.48
2018-10-02T02:47:07.244Z,11.47
2018-10-02T02:49:41.271Z,11.45
2018-10-02T02:52:10.284Z,11.40
2018-10-02T02:54:39.155Z,11.41
2018-10-02T02:57:08.264Z,11.39
2018-10-02T02:59:37.059Z,11.36
2018-10-02T03:02:05.983Z,11.37
2018-10-02T03:04:34.890Z,11.38
2018-10-02T03:07:03.825Z,11.40
2018-10-02T03:09:32.907Z,11.44
2018-10-02T03:12:01.777Z,11.46
2018-10-02T03:14:30.545Z,11.50
2018-10-02T03:16:59.472Z,11.51
2018-10-02T03:19:28.248Z,11.59
2018-10-02T03:21:57.217Z,11.57
2018-10-02T03:24:26.257Z,11.51
2018-10-02T03:26:55.047Z,11.52
2018-10-02T03:29:23.832Z,11.49
2018-10-02T03:31:52.675Z,11.44
2018-10-02T03:34:21.506Z,11.41
2018-10-02T03:36:50.443Z,11.36
2018-10-02T03:39:19.818Z,11.35
2018-10-02T03:41:48.580Z,11.29
2018-10-02T03:44:17.628Z,11.26
2018-10-02T03:46:46.493Z,11.22
2018-10-02T03:49:15.379Z,11.24
2018-10-02T03:51:44.243Z,11.25
2018-10-02T03:54:13.140Z,11.18
2018-10-02T03:56:42.036Z,11.17
2018-10-02T03:59:10.853Z,11.17
2018-10-02T04:01:39.812Z,11.13
2018-10-02T04:04:08.616Z,11.13
2018-10-02T04:06:37.543Z,11.12
2018-10-02T04:09:09.188Z,11.02
2018-10-02T04:11:38.243Z,10.91
2018-10-02T04:14:07.310Z,10.95
2018-10-02T04:16:36.088Z,10.95
2018-10-02T04:19:04.981Z,10.92
2018-10-02T04:21:35.656Z,10.92
2018-10-02T04:24:05.835Z,10.93
2018-10-02T04:26:35.794Z,10.98
2018-10-02T04:29:05.924Z,10.98
2018-10-02T04:31:36.173Z,11.02
2018-10-02T04:34:05.378Z,10.99
2018-10-02T04:36:34.423Z,11.05
2018-10-02T04:39:03.363Z,11.04
2018-10-02T04:41:32.171Z,11.08
2018-10-02T04:44:01.333Z,11.05
2018-10-02T04:46:30.204Z,10.99
2018-10-02T04:48:59.166Z,10.97
2018-10-02T04:51:28.067Z,11.05
2018-10-02T04:53:56.895Z,11.08
2018-10-02T04:56:25.811Z,11.12
2018-10-02T04:58:54.829Z,11.08
2018-10-02T05:01:24.228Z,11.13
2018-10-02T05:03:54.406Z,11.18
2018-10-02T05:06:23.301Z,11.25
2018-10-02T05:08:52.246Z,11.31
2018-10-02T05:11:21.924Z,11.42
2018-10-02T05:13:50.728Z,11.45
2018-10-02T05:16:19.685Z,11.46
2018-10-02T05:18:48.531Z,11.59
2018-10-02T05:21:17.394Z,11.69
2018-10-02T05:23:46.325Z,11.74
2018-10-02T05:26:15.274Z,11.80
2018-10-02T05:28:44.190Z,11.82
2018-10-02T05:31:13.090Z,11.84
2018-10-02T05:33:42.033Z,11.90
2018-10-02T05:36:11.077Z,11.95
2018-10-02T05:38:39.958Z,11.98
2018-10-02T05:41:08.854Z,12.07
2018-10-02T05:43:37.901Z,12.16
2018-10-02T05:46:06.790Z,12.26
2018-10-02T05:48:35.605Z,12.31
2018-10-02T05:51:04.539Z,12.37
2018-10-02T05:53:34.872Z,12.49
2018-10-02T05:56:03.714Z,12.50
2018-10-02T05:58:32.789Z,12.64
2018-10-02T06:01:01.826Z,12.77
2018-10-02T06:03:30.782Z,12.87
2018-10-02T06:05:59.581Z,13.03
2018-10-02T06:08:28.393Z,13.02
2018-10-02T06:10:57.325Z,13.11
2018-10-02T06:13:26.289Z,13.13
2018-10-02T06:15:55.443Z,13.22
2018-10-02T06:18:24.298Z,13.31
2018-10-02T06:20:53.449Z,13.34
2018-10-02T06:23:22.531Z,13.39
2018-10-02T06:25:51.459Z,13.49
2018-10-02T06:28:20.307Z,13.63
2018-10-02T06:30:49.271Z,13.71
2018-10-02T06:33:18.213Z,13.86
2018-10-02T06:35:47.134Z,13.99
2018-10-02T06:38:16.290Z,14.03
2018-10-02T06:40:45.317Z,13.81
2018-10-02T06:43:14.203Z,13.47
2018-10-02T06:45:43.061Z,13.45
2018-10-02T06:48:11.946Z,13.53
2018-10-02T06:50:40.905Z,13.59
2018-10-02T06:53:10.907Z,13.45
2018-10-02T06:55:39.763Z,13.51
2018-10-02T06:58:08.585Z,13.58
2018-10-02T07:00:37.401Z,13.70
2018-10-02T07:03:06.815Z,13.77
2018-10-02T07:05:35.792Z,13.91
2018-10-02T07:08:04.685Z,13.97
2018-10-02T07:10:35.241Z,13.98
2018-10-02T07:13:04.133Z,13.99
2018-10-02T07:15:33.033Z,13.95
2018-10-02T07:18:02.068Z,13.95
2018-10-02T07:20:31.016Z,14.11
2018-10-02T07:23:00.068Z,14.07
2018-10-02T07:25:28.964Z,14.11
2018-10-02T07:27:58.102Z,14.15
2018-10-02T07:30:27.056Z,14.23
2018-10-02T07:32:56.171Z,14.35
2018-10-02T07:35:25.229Z,14.33
2018-10-02T07:37:54.117Z,14.34
2018-10-02T07:40:23.046Z,14.39
2018-10-02T07:42:51.913Z,14.41
2018-10-02T07:45:20.784Z,14.49
2018-10-02T07:47:49.708Z,14.53
2018-10-02T07:50:18.526Z,14.60
2018-10-02T07:52:47.370Z,14.71
2018-10-02T07:55:16.707Z,14.76
2018-10-02T07:57:45.544Z,14.78
2018-10-02T08:00:14.477Z,14.83
2018-10-02T08:02:43.409Z,14.89
2018-10-02T08:05:12.527Z,15.05
2018-10-02T08:07:41.590Z,15.11
2018-10-02T08:10:10.477Z,15.17
2018-10-02T08:12:39.377Z,15.27
2018-10-02T08:15:08.260Z,15.37
2018-10-02T08:17:37.269Z,15.34
2018-10-02T08:20:06.357Z,15.33
2018-10-02T08:22:35.297Z,15.41
2018-10-02T08:25:04.289Z,15.51
2018-10-02T08:27:33.225Z,15.63
2018-10-02T08:30:02.267Z,15.73
2018-10-02T08:32:31.332Z,15.81
2018-10-02T08:35:00.330Z,15.78
2018-10-02T08:37:29.215Z,15.94
2018-10-02T08:39:58.232Z,16.09
2018-10-02T08:42:27.077Z,16.13
2018-10-02T08:44:56.059Z,16.09
2018-10-02T08:47:25.251Z,16.24
2018-10-02T08:49:54.948Z,16.16
2018-10-02T08:52:23.833Z,16.22
2018-10-02T08:54:52.643Z,16.32
2018-10-02T08:57:21.544Z,16.47
2018-10-02T08:59:50.405Z,16.49
2018-10-02T09:02:19.562Z,16.61
2018-10-02T09:04:48.604Z,16.71
2018-10-02T09:07:17.393Z,16.81
2018-10-02T09:09:46.266Z,16.86
2018-10-02T09:12:15.129Z,16.99
2018-10-02T09:14:44.452Z,17.15
2018-10-02T09:17:13.329Z,17.26
2018-10-02T09:19:42.160Z,17.33
2018-10-02T09:22:11.064Z,17.38
2018-10-02T09:24:40.210Z,17.45
2018-10-02T09:27:09.280Z,17.48
2018-10-02T09:29:42.245Z,17.51
2018-10-02T09:32:16.432Z,17.60
2018-10-02T09:34:50.544Z,17.65
2018-10-02T09:37:24.707Z,17.64
2018-10-02T09:39:58.807Z,17.70
2018-10-02T09:42:32.992Z,17.81
2018-10-02T09:45:02.162Z,17.92
2018-10-02T09:47:31.082Z,18.06
2018-10-02T09:49:59.939Z,18.10
2018-10-02T09:52:29.005Z,18.13
2018-10-02T09:54:57.856Z,18.18
2018-10-02T09:57:26.870Z,18.24
2018-10-02T09:59:55.728Z,18.32
2018-10-02T10:02:29.925Z,18.43
2018-10-02T10:04:58.982Z,18.47
2018-10-02T10:07:27.925Z,18.55
2018-10-02T10:09:56.765Z,18.57
2018-10-02T10:12:25.638Z,18.60
2018-10-02T10:14:54.539Z,18.59
2018-10-02T10:17:23.452Z,18.72
2018-10-02T10:19:52.476Z,18.77
2018-10-02T10:22:21.375Z,18.87
2018-10-02T10:24:50.177Z,18.93
2018-10-02T10:27:18.973Z,19.04
2018-10-02T10:29:47.800Z,19.12
2018-10-02T10:32:16.693Z,19.16
2018-10-02T10:34:45.993Z,19.23
2018-10-02T10:37:15.071Z,19.29
2018-10-02T10:39:43.892Z,19.33
2018-10-02T10:42:12.748Z,19.44
2018-10-02T10:44:41.645Z,19.53
2018-10-02T10:47:10.495Z,19.51
2018-10-02T10:49:39.326Z,19.56
2018-10-02T10:52:08.284Z,19.61
2018-10-02T10:54:37.140Z,19.69
2018-10-02T10:57:06.002Z,19.72
2018-10-02T10:59:34.891Z,19.78
2018-10-02T11:02:03.798Z,19.79
2018-10-02T11:04:32.812Z,19.73
2018-10-02T11:07:01.865Z,19.76
2018-10-02T11:09:30.712Z,19.87
2018-10-02T11:11:59.745Z,19.97
2018-10-02T11:14:28.585Z,20.01
2018-10-02T11:16:57.618Z,20.06
2018-10-02T11:19:26.516Z,20.07
2018-10-02T11:21:55.422Z,20.21
2018-10-02T11:24:24.442Z,20.34
2018-10-02T11:26:53.283Z,20.47
2018-10-02T11:29:22.182Z,20.49
2018-10-02T11:31:51.106Z,20.45
2018-10-02T11:34:20.116Z,20.58
2018-10-02T11:36:49.097Z,20.71
2018-10-02T11:39:17.942Z,20.79
2018-10-02T11:41:47.443Z,20.80
2018-10-02T11:44:18.797Z,20.85
2018-10-02T11:46:47.822Z,20.97
2018-10-02T11:49:16.665Z,21.06
2018-10-02T11:51:45.824Z,21.17
2018-10-02T11:54:14.899Z,21.20
2018-10-02T11:56:44.174Z,21.21
2018-10-02T11:59:13.056Z,21.18
2018-10-02T12:01:41.914Z,21.20
2018-10-02T12:04:11.023Z,21.22
2018-10-02T12:06:39.859Z,21.26
2018-10-02T12:09:08.882Z,21.30
2018-10-02T12:11:37.980Z,21.30
2018-10-02T12:14:07.133Z,21.29
2018-10-02T12:16:36.170Z,21.29
2018-10-02T12:19:05.541Z,21.35
2018-10-02T12:21:34.408Z,21.40
2018-10-02T12:24:03.358Z,21.42
2018-10-02T12:26:32.230Z,21.49
2018-10-02T12:29:01.129Z,21.55
2018-10-02T12:31:29.942Z,21.62
2018-10-02T12:33:58.781Z,21.64
2018-10-02T12:36:27.979Z,21.64
2018-10-02T12:38:56.924Z,21.60
2018-10-02T12:41:26.072Z,21.66
2018-10-02T12:43:54.925Z,21.69
2018-10-02T12:46:23.751Z,21.69
2018-10-02T12:48:52.749Z,21.72
2018-10-02T12:51:21.760Z,21.78
2018-10-02T12:53:50.789Z,21.82
2018-10-02T12:56:19.666Z,21.90
2018-10-02T12:58:48.527Z,21.91
2018-10-02T13:01:18.279Z,21.99
2018-10-02T13:03:47.142Z,21.98
2018-10-02T13:06:15.974Z,21.93
2018-10-02T13:08:44.977Z,21.91
2018-10-02T13:11:13.806Z,21.87
2018-10-02T13:13:42.819Z,21.88
2018-10-02T13:16:11.798Z,21.89
2018-10-02T13:18:40.674Z,22.00
2018-10-02T13:21:09.633Z,22.05
2018-10-02T13:23:38.481Z,22.09
2018-10-02T13:26:07.336Z,22.12
2018-10-02T13:28:36.297Z,22.17
2018-10-02T13:31:05.134Z,22.17
2018-10-02T13:33:34.051Z,22.17
2018-10-02T13:36:02.946Z,22.20
2018-10-02T13:38:31.823Z,22.21
2018-10-02T13:41:00.891Z,22.18
2018-10-02T13:43:29.814Z,22.21
2018-10-02T13:45:58.653Z,22.28
2018-10-02T13:48:27.599Z,22.34
2018-10-02T13:50:56.524Z,22.37
2018-10-02T13:53:25.396Z,22.33
2018-10-02T13:55:54.291Z,22.31
2018-10-02T13:58:23.292Z,22.28
2018-10-02T14:00:52.280Z,22.27
2018-10-02T14:03:21.102Z,22.27
2018-10-02T14:05:49.944Z,22.24
2018-10-02T14:08:18.974Z,22.18
2018-10-02T14:10:48.058Z,22.13
2018-10-02T14:13:16.927Z,22.06
2018-10-02T14:15:45.759Z,22.00
2018-10-02T14:18:14.566Z,22.01
2018-10-02T14:20:43.538Z,22.00
2018-10-02T14:23:19.143Z,22.04
2018-10-02T14:25:48.182Z,21.98
2018-10-02T14:28:17.066Z,21.98
2018-10-02T14:30:46.072Z,21.90
2018-10-02T14:33:15.092Z,21.89
2018-10-02T14:35:44.059Z,21.95
2018-10-02T14:38:13.901Z,21.92
2018-10-02T14:40:42.923Z,21.92
2018-10-02T14:43:12.067Z,21.91
2018-10-02T14:45:41.365Z,21.88
2018-10-02T14:48:10.303Z,21.92
2018-10-02T14:50:39.537Z,21.93
2018-10-02T14:53:08.646Z,21.89
2018-10-02T14:55:37.685Z,21.80
2018-10-02T14:58:07.541Z,21.70
2018-10-02T15:00:37.210Z,21.64
2018-10-02T15:03:06.503Z,21.56
2018-10-02T15:05:35.508Z,21.53
2018-10-02T15:08:04.349Z,21.50
2018-10-02T15:10:33.172Z,21.46
2018-10-02T15:13:02.166Z,21.39
2018-10-02T15:15:31.103Z,21.33
2018-10-02T15:18:00.068Z,21.30
2018-10-02T15:20:29.251Z,21.26
2018-10-02T15:22:58.274Z,21.21
2018-10-02T15:25:27.208Z,21.21
2018-10-02T15:27:56.138Z,21.19
2018-10-02T15:30:25.312Z,21.06
2018-10-02T15:32:54.148Z,20.99
2018-10-02T15:35:22.988Z,20.89
2018-10-02T15:37:52.000Z,20.84
2018-10-02T15:40:20.952Z,20.82
2018-10-02T15:42:49.807Z,20.77
2018-10-02T15:45:18.727Z,20.74
2018-10-02T15:47:47.708Z,20.71
2018-10-02T15:50:16.594Z,20.64
2018-10-02T15:52:45.468Z,20.61
2018-10-02T15:55:14.352Z,20.57
2018-10-02T15:57:43.234Z,20.54
2018-10-02T16:00:12.084Z,20.52
2018-10-02T16:02:40.961Z,20.48
2018-10-02T16:05:09.882Z,20.45
2018-10-02T16:07:38.677Z,20.43
2018-10-02T16:10:07.645Z,20.40
2018-10-02T16:12:36.582Z,20.33
2018-10-02T16:15:05.555Z,20.34
2018-10-02T16:17:34.421Z,20.28
2018-10-02T16:20:03.347Z,20.23
2018-10-02T16:22:32.215Z,20.21
2018-10-02T16:25:01.163Z,20.15
2018-10-02T16:27:30.383Z,20.03
2018-10-02T16:29:59.258Z,20.09
2018-10-02T16:32:28.074Z,20.08
2018-10-02T16:34:57.018Z,20.08
2018-10-02T16:37:26.016Z,20.10
2018-10-02T16:39:55.029Z,20.16
2018-10-02T16:42:23.991Z,20.26
2018-10-02T16:44:52.941Z,20.36
2018-10-02T16:47:21.864Z,20.45
2018-10-02T16:49:50.647Z,20.47
2018-10-02T16:52:19.628Z,20.48
2018-10-02T16:54:48.656Z,20.43
2018-10-02T16:57:17.602Z,20.49
2018-10-02T16:59:46.736Z,20.51
2018-10-02T17:02:15.557Z,20.53
2018-10-02T17:04:44.608Z,20.56
2018-10-02T17:07:13.453Z,20.43
2018-10-02T17:09:42.285Z,20.31
2018-10-02T17:12:11.189Z,20.27
2018-10-02T17:14:40.086Z,20.15
2018-10-02T17:17:08.985Z,20.08
2018-10-02T17:19:37.831Z,20.03
2018-10-02T17:22:06.738Z,20.03
2018-10-02T17:24:35.598Z,20.02
2018-10-02T17:27:04.537Z,19.96
2018-10-02T17:29:33.397Z,19.89
2018-10-02T17:32:02.279Z,19.85
2018-10-02T17:34:31.132Z,19.79
2018-10-02T17:37:00.001Z,19.72
2018-10-02T17:39:29.010Z,19.70
2018-10-02T17:41:57.954Z,19.65
2018-10-02T17:44:26.762Z,19.60
2018-10-02T17:46:55.713Z,19.50
2018-10-02T17:49:24.934Z,19.42
2018-10-02T17:51:53.887Z,19.32
2018-10-02T17:54:22.962Z,19.23
2018-10-02T17:56:52.006Z,19.15
2018-10-02T17:59:20.933Z,19.04
2018-10-02T18:01:49.984Z,18.95
2018-10-02T18:04:18.907Z,18.88
2018-10-02T18:06:47.848Z,18.79
2018-10-02T18:09:16.719Z,18.71
2018-10-02T18:11:45.545Z,18.68
2018-10-02T18:14:14.590Z,18.65
2018-10-02T18:16:43.456Z,18.62
2018-10-02T18:19:12.347Z,18.57
2018-10-02T18:21:41.193Z,18.52
2018-10-02T18:24:10.202Z,18.46
2018-10-02T18:26:39.034Z,18.38
2018-10-02T18:29:08.019Z,18.30
2018-10-02T18:31:41.287Z,18.26
2018-10-02T18:34:10.351Z,18.16
2018-10-02T18:36:39.255Z,18.07
2018-10-02T18:39:08.642Z,17.98
2018-10-02T18:41:37.601Z,17.89
2018-10-02T18:44:06.779Z,17.83
2018-10-02T18:46:36.301Z,17.73
2018-10-02T18:49:05.811Z,17.59
2018-10-02T18:51:35.043Z,17.47
2018-10-02T18:54:03.943Z,17.33
2018-10-02T18:56:33.140Z,17.27
2018-10-02T18:59:02.296Z,17.20
2018-10-02T19:01:31.157Z,17.18
2018-10-02T19:04:00.008Z,17.12
2018-10-02T19:06:28.911Z,17.06
2018-10-02T19:09:15.379Z,16.99
2018-10-02T19:11:49.427Z,16.95
2018-10-02T19:14:19.195Z,16.87
2018-10-02T19:16:48.132Z,16.84
2018-10-02T19:19:22.273Z,16.76
2018-10-02T19:21:51.190Z,16.71
2018-10-02T19:24:20.134Z,16.69
2018-10-02T19:26:49.122Z,16.66
2018-10-02T19:29:18.009Z,16.58
2018-10-02T19:31:52.043Z,16.56
2018-10-02T19:34:21.126Z,16.51
2018-10-02T19:36:49.997Z,16.50
2018-10-02T19:39:25.624Z,16.52
2018-10-02T19:41:54.754Z,16.51
2018-10-02T19:44:23.651Z,16.49
2018-10-02T19:46:54.185Z,16.47
2018-10-02T19:49:24.554Z,16.45
2018-10-02T19:51:58.716Z,16.34
2018-10-02T19:54:27.977Z,16.28
2018-10-02T19:56:57.067Z,16.29
2018-10-02T19:59:25.981Z,16.25
2018-10-02T20:01:55.087Z,16.22
2018-10-02T20:04:24.146Z,16.07
2018-10-02T20:06:53.250Z,16.03
2018-10-02T20:09:22.137Z,15.97
2018-10-02T20:11:51.016Z,15.94
2018-10-02T20:14:19.912Z,15.83
2018-10-02T20:16:48.848Z,15.72
2018-10-02T20:19:17.725Z,15.55
2018-10-02T20:21:46.602Z,15.54
2018-10-02T20:24:15.423Z,15.47
2018-10-02T20:26:44.375Z,15.44
2018-10-02T20:29:13.302Z,15.34
2018-10-02T20:31:44.041Z,15.21
2018-10-02T20:34:12.894Z,15.11
2018-10-02T20:36:41.805Z,15.02
2018-10-02T20:39:11.659Z,14.91
2018-10-02T20:41:40.652Z,14.83
2018-10-02T20:44:09.953Z,14.72
2018-10-02T20:46:38.837Z,14.62
2018-10-02T20:49:07.781Z,14.58
2018-10-02T20:51:36.874Z,14.55
2018-10-02T20:54:05.724Z,14.45
2018-10-02T20:56:34.609Z,14.42
2018-10-02T20:59:03.571Z,14.27
2018-10-02T21:01:32.498Z,14.22
2018-10-02T21:04:01.381Z,14.17
2018-10-02T21:06:30.272Z,14.05
2018-10-02T21:08:59.239Z,13.93
2018-10-02T21:11:28.055Z,13.93
2018-10-02T21:13:56.987Z,13.92
2018-10-02T21:16:25.800Z,13.88
2018-10-02T21:18:54.612Z,13.91
2018-10-02T21:21:23.514Z,13.85
2018-10-02T21:23:52.396Z,13.73
2018-10-02T21:26:21.301Z,13.65
2018-10-02T21:28:50.174Z,13.62
2018-10-02T21:31:26.020Z,13.58
2018-10-02T21:33:55.184Z,13.56
2018-10-02T21:36:24.208Z,13.55
2018-10-02T21:38:53.115Z,13.51
2018-10-02T21:41:22.006Z,13.42
2018-10-02T21:43:50.896Z,13.41
2018-10-02T21:46:19.713Z,13.31
2018-10-02T21:48:48.521Z,13.32
2018-10-02T21:51:17.358Z,13.31
2018-10-02T21:53:46.229Z,13.30
2018-10-02T21:56:15.050Z,13.28
2018-10-02T21:58:43.978Z,13.22
2018-10-02T22:01:12.899Z,13.23
2018-10-02T22:03:41.776Z,13.18
2018-10-02T22:06:10.661Z,13.23
2018-10-02T22:08:39.509Z,13.23
2018-10-02T22:11:08.362Z,13.19
2018-10-02T22:13:37.191Z,13.15
2018-10-02T22:16:06.365Z,13.13
2018-10-02T22:18:35.247Z,13.08
2018-10-02T22:21:04.234Z,13.03
2018-10-02T22:23:33.080Z,13.00
2018-10-02T22:26:02.948Z,12.97
2018-10-02T22:28:31.860Z,12.99
2018-10-02T22:31:00.805Z,13.00
2018-10-02T22:33:29.748Z,12.97
2018-10-02T22:35:58.803Z,12.97
2018-10-02T22:38:27.629Z,12.95
2018-10-02T22:40:56.474Z,12.90
2018-10-02T22:43:25.297Z,12.85
2018-10-02T22:45:54.122Z,12.84
2018-10-02T22:48:22.923Z,12.83
2018-10-02T22:50:51.745Z,12.84
2018-10-02T22:53:20.658Z,12.86
2018-10-02T22:55:49.535Z,12.90
2018-10-02T22:58:18.452Z,12.88
2018-10-02T23:00:47.391Z,12.84
2018-10-02T23:03:16.808Z,12.75
2018-10-02T23:05:45.761Z,12.73
2018-10-02T23:08:14.609Z,12.68
2018-10-02T23:10:43.427Z,12.64
2018-10-02T23:13:12.333Z,12.60
2018-10-02T23:15:41.216Z,12.62
2018-10-02T23:18:10.021Z,12.60
2018-10-02T23:20:38.863Z,12.56
2018-10-02T23:23:07.901Z,12.54
2018-10-02T23:25:36.748Z,12.53
2018-10-02T23:28:05.678Z,12.57
2018-10-02T23:30:34.586Z,12.52
2018-10-02T23:33:03.503Z,12.52
2018-10-02T23:35:32.674Z,12.52
2018-10-02T23:38:01.573Z,12.49
2018-10-02T23:40:30.377Z,12.44
2018-10-02T23:42:59.349Z,12.44
2018-10-02T23:45:28.302Z,12.43
2018-10-02T23:47:57.133Z,12.46
2018-10-02T23:50:25.955Z,12.49
2018-10-02T23:52:54.901Z,12.44
2018-10-02T23:55:23.802Z,12.39
2018-10-02T23:57:53.604Z,12.40
